createdAt,value
2018-12-21T00:00:46.133Z,8.58
2018-12-21T00:01:46.150Z,8.53
2018-12-21T00:02:46.176Z,8.53
2018-12-21T00:03:46.198Z,8.50
2018-12-21T00:04:46.224Z,8.50
2018-12-21T00:05:46.249Z,8.46
2018-12-21T00:06:46.273Z,8.47
2018-12-21T00:07:46.297Z,8.53
2018-12-21T00:08:46.322Z,8.49
2018-12-21T00:09:46.345Z,8.42
2018-12-21T00:10:46.370Z,8.50
2018-12-21T00:11:46.393Z,8.46
2018-12-21T00:12:46.418Z,8.50
2018-12-21T00:13:46.441Z,8.46
2018-12-21T00:14:46.465Z,8.49
2018-12-21T00:15:46.487Z,8.50
2018-12-21T00:16:46.511Z,8.44
2018-12-21T00:17:46.536Z,8.47
2018-12-21T00:18:46.560Z,8.49
2018-12-21T00:19:46.583Z,8.46
2018-12-21T00:20:46.607Z,8.46
2018-12-21T00:21:46.634Z,8.49
2018-12-21T00:22:46.736Z,8.50
2018-12-21T00:23:46.679Z,8.52
2018-12-21T00:24:46.701Z,8.50
2018-12-21T00:25:46.725Z,8.50
2018-12-21T00:26:46.753Z,8.43
2018-12-21T00:27:46.773Z,8.49
2018-12-21T00:28:46.800Z,8.46
2018-12-21T00:29:46.822Z,8.50
2018-12-21T00:30:46.847Z,8.54
2018-12-21T00:31:46.869Z,8.44
2018-12-21T00:32:46.893Z,8.52
2018-12-21T00:33:46.920Z,8.49
2018-12-21T00:34:46.943Z,8.52
2018-12-21T00:35:46.965Z,8.57
2018-12-21T00:36:46.989Z,8.52
2018-12-21T00:37:47.014Z,8.54
2018-12-21T00:38:47.036Z,8.52
2018-12-21T00:39:47.061Z,8.53
2018-12-21T00:40:47.084Z,8.49
2018-12-21T00:41:47.110Z,8.53
2018-12-21T00:42:47.132Z,8.54
2018-12-21T00:43:47.158Z,8.60
2018-12-21T00:44:47.182Z,8.49
2018-12-21T00:45:47.205Z,8.58
2018-12-21T00:46:47.231Z,8.60
2018-12-21T00:47:47.254Z,8.61
2018-12-21T00:48:47.276Z,8.61
2018-12-21T00:49:47.302Z,8.61
2018-12-21T00:50:47.323Z,8.67
2018-12-21T00:51:47.350Z,8.65
2018-12-21T00:52:47.371Z,8.62
2018-12-21T00:53:47.394Z,8.68
2018-12-21T00:54:47.418Z,8.69
2018-12-21T00:55:47.446Z,8.62
2018-12-21T00:56:47.467Z,8.67
2018-12-21T00:57:47.492Z,8.68
2018-12-21T00:58:47.517Z,8.67
2018-12-21T00:59:47.541Z,8.71
2018-12-21T01:00:47.564Z,8.62
2018-12-21T01:01:47.589Z,8.64
2018-12-21T01:02:47.611Z,8.60
2018-12-21T01:03:47.636Z,8.62
2018-12-21T01:04:47.658Z,8.67
2018-12-21T01:05:47.684Z,8.61
2018-12-21T01:06:47.707Z,8.68
2018-12-21T01:07:47.732Z,8.64
2018-12-21T01:08:47.754Z,8.65
2018-12-21T01:09:47.780Z,8.71
2018-12-21T01:10:47.803Z,8.69
2018-12-21T01:11:47.825Z,8.64
2018-12-21T01:12:47.851Z,8.67
2018-12-21T01:13:47.874Z,8.57
2018-12-21T01:14:47.900Z,8.68
2018-12-21T01:15:47.920Z,8.60
2018-12-21T01:16:47.948Z,8.64
2018-12-21T01:17:47.971Z,8.71
2018-12-21T01:18:47.995Z,8.65
2018-12-21T01:19:48.016Z,8.61
2018-12-21T01:20:48.041Z,8.65
2018-12-21T01:21:48.065Z,8.71
2018-12-21T01:22:48.091Z,8.79
2018-12-21T01:23:48.115Z,8.64
2018-12-21T01:24:48.140Z,8.62
2018-12-21T01:25:48.161Z,8.65
2018-12-21T01:26:48.187Z,8.76
2018-12-21T01:27:48.212Z,8.68
2018-12-21T01:28:48.236Z,8.69
2018-12-21T01:29:48.256Z,8.69
2018-12-21T01:30:48.283Z,8.68
2018-12-21T01:31:48.305Z,8.69
2018-12-21T01:32:48.331Z,8.69
2018-12-21T01:33:48.354Z,8.67
2018-12-21T01:34:48.377Z,8.74
2018-12-21T01:35:48.400Z,8.82
2018-12-21T01:36:48.425Z,8.80
2018-12-21T01:37:48.450Z,8.76
2018-12-21T01:38:48.471Z,8.77
2018-12-21T01:39:48.499Z,8.76
2018-12-21T01:40:48.522Z,8.71
2018-12-21T01:41:48.546Z,8.71
2018-12-21T01:42:48.567Z,8.76
2018-12-21T01:43:48.594Z,8.80
2018-12-21T01:44:48.618Z,8.80
2018-12-21T01:45:48.642Z,8.67
2018-12-21T01:46:48.666Z,8.77
2018-12-21T01:47:48.689Z,8.74
2018-12-21T01:48:48.714Z,8.69
2018-12-21T01:49:48.735Z,8.76
2018-12-21T01:50:48.760Z,8.71
2018-12-21T01:51:48.788Z,8.69
2018-12-21T01:52:48.810Z,8.69
2018-12-21T01:53:48.833Z,8.69
2018-12-21T01:54:48.855Z,8.69
2018-12-21T01:55:48.880Z,8.72
2018-12-21T01:56:48.905Z,8.69
2018-12-21T01:57:48.928Z,8.71
2018-12-21T01:58:48.951Z,8.72
2018-12-21T01:59:48.978Z,8.65
2018-12-21T02:00:49.002Z,8.76
2018-12-21T02:01:49.025Z,8.76
2018-12-21T02:02:49.047Z,8.62
2018-12-21T02:03:49.070Z,8.65
2018-12-21T02:04:49.095Z,8.64
2018-12-21T02:05:49.122Z,8.80
2018-12-21T02:06:49.143Z,8.62
2018-12-21T02:07:49.169Z,8.64
2018-12-21T02:08:49.194Z,8.62
2018-12-21T02:09:49.219Z,8.71
2018-12-21T02:10:49.343Z,8.62
2018-12-21T02:11:49.262Z,8.72
2018-12-21T02:12:49.289Z,8.69
2018-12-21T02:13:49.309Z,8.65
2018-12-21T02:14:49.336Z,8.72
2018-12-21T02:15:49.362Z,8.68
2018-12-21T02:16:49.382Z,8.74
2018-12-21T02:17:49.406Z,8.71
2018-12-21T02:18:49.432Z,8.77
2018-12-21T02:19:49.453Z,8.77
2018-12-21T02:20:49.479Z,8.82
2018-12-21T02:21:55.822Z,8.77
2018-12-21T02:22:49.526Z,8.76
2018-12-21T02:23:49.667Z,8.79
2018-12-21T02:24:49.578Z,8.79
2018-12-21T02:25:49.599Z,8.80
2018-12-21T02:26:49.625Z,8.77
2018-12-21T02:27:49.645Z,8.77
2018-12-21T02:28:49.672Z,8.82
2018-12-21T02:29:49.695Z,8.79
2018-12-21T02:30:49.721Z,8.80
2018-12-21T02:31:49.747Z,8.82
2018-12-21T02:32:49.765Z,8.80
2018-12-21T02:33:49.789Z,8.77
2018-12-21T02:34:49.813Z,8.85
2018-12-21T02:35:49.840Z,8.76
2018-12-21T02:36:49.862Z,8.89
2018-12-21T02:37:49.884Z,8.82
2018-12-21T02:38:49.914Z,8.83
2018-12-21T02:39:49.935Z,8.79
2018-12-21T02:40:49.960Z,8.77
2018-12-21T02:41:49.981Z,8.85
2018-12-21T02:42:50.007Z,8.77
2018-12-21T02:43:50.029Z,8.83
2018-12-21T02:44:50.054Z,8.77
2018-12-21T02:45:50.077Z,8.77
2018-12-21T02:46:50.100Z,8.83
2018-12-21T02:47:50.125Z,8.86
2018-12-21T02:48:50.150Z,8.87
2018-12-21T02:49:50.175Z,8.76
2018-12-21T02:50:50.197Z,8.89
2018-12-21T02:51:50.226Z,8.87
2018-12-21T02:52:50.247Z,8.92
2018-12-21T02:53:50.270Z,8.89
2018-12-21T02:54:50.292Z,8.92
2018-12-21T02:55:50.319Z,8.95
2018-12-21T02:56:50.343Z,8.95
2018-12-21T02:57:50.366Z,8.92
2018-12-21T02:58:50.387Z,8.86
2018-12-21T02:59:50.415Z,8.95
2018-12-21T03:00:50.437Z,8.94
2018-12-21T03:01:50.460Z,8.97
2018-12-21T03:02:50.496Z,8.97
2018-12-21T03:03:50.515Z,8.95
2018-12-21T03:04:50.535Z,9.00
2018-12-21T03:05:50.558Z,8.98
2018-12-21T03:06:50.583Z,9.00
2018-12-21T03:07:50.606Z,8.98
2018-12-21T03:08:50.634Z,8.95
2018-12-21T03:09:50.657Z,9.03
2018-12-21T03:10:50.685Z,9.05
2018-12-21T03:11:50.703Z,9.01
2018-12-21T03:12:50.724Z,9.08
2018-12-21T03:13:50.747Z,9.03
2018-12-21T03:14:50.773Z,9.03
2018-12-21T03:15:50.798Z,9.16
2018-12-21T03:16:50.822Z,8.95
2018-12-21T03:17:50.843Z,9.11
2018-12-21T03:18:50.871Z,9.03
2018-12-21T03:19:50.894Z,9.05
2018-12-21T03:20:50.915Z,9.01
2018-12-21T03:21:50.945Z,9.03
2018-12-21T03:22:50.963Z,9.03
2018-12-21T03:23:50.993Z,9.00
2018-12-21T03:24:51.011Z,8.92
2018-12-21T03:25:51.035Z,9.00
2018-12-21T03:26:51.065Z,9.01
2018-12-21T03:27:51.083Z,9.09
2018-12-21T03:28:51.111Z,9.03
2018-12-21T03:29:51.134Z,9.03
2018-12-21T03:30:51.160Z,9.08
2018-12-21T03:31:51.184Z,8.98
2018-12-21T03:32:51.211Z,8.98
2018-12-21T03:33:51.254Z,8.98
2018-12-21T03:34:51.260Z,8.98
2018-12-21T03:35:51.280Z,8.98
2018-12-21T03:36:51.305Z,8.98
2018-12-21T03:37:51.327Z,8.95
2018-12-21T03:38:51.349Z,8.90
2018-12-21T03:39:51.372Z,8.94
2018-12-21T03:40:51.396Z,8.95
2018-12-21T03:41:51.423Z,8.87
2018-12-21T03:42:51.448Z,8.98
2018-12-21T03:43:51.469Z,8.94
2018-12-21T03:44:51.498Z,8.92
2018-12-21T03:45:51.519Z,8.89
2018-12-21T03:46:51.546Z,8.82
2018-12-21T03:47:51.567Z,8.83
2018-12-21T03:48:51.591Z,8.79
2018-12-21T03:49:51.634Z,8.79
2018-12-21T03:50:51.639Z,8.83
2018-12-21T03:51:51.662Z,8.80
2018-12-21T03:52:51.685Z,8.82
2018-12-21T03:53:51.712Z,8.86
2018-12-21T03:54:51.736Z,8.85
2018-12-21T03:55:51.759Z,8.83
2018-12-21T03:56:51.783Z,8.82
2018-12-21T03:57:51.806Z,8.85
2018-12-21T03:58:51.830Z,8.83
2018-12-21T03:59:51.854Z,8.77
2018-12-21T04:00:51.879Z,8.77
2018-12-21T04:01:51.903Z,8.77
2018-12-21T04:02:51.928Z,8.71
2018-12-21T04:03:51.951Z,8.76
2018-12-21T04:04:51.972Z,8.77
2018-12-21T04:05:51.997Z,8.74
2018-12-21T04:06:52.020Z,8.71
2018-12-21T04:07:52.046Z,8.68
2018-12-21T04:08:52.081Z,8.68
2018-12-21T04:09:52.094Z,8.74
2018-12-21T04:10:52.116Z,8.72
2018-12-21T04:11:52.147Z,8.76
2018-12-21T04:12:52.171Z,8.71
2018-12-21T04:13:52.190Z,8.71
2018-12-21T04:14:52.210Z,8.71
2018-12-21T04:15:52.237Z,8.79
2018-12-21T04:16:52.266Z,8.74
2018-12-21T04:17:52.283Z,8.71
2018-12-21T04:18:52.310Z,8.80
2018-12-21T04:19:52.331Z,8.76
2018-12-21T04:20:52.370Z,8.77
2018-12-21T04:21:52.382Z,8.79
2018-12-21T04:22:52.410Z,8.82
2018-12-21T04:23:52.430Z,8.83
2018-12-21T04:24:52.454Z,8.79
2018-12-21T04:25:52.475Z,8.79
2018-12-21T04:26:52.498Z,8.86
2018-12-21T04:27:52.667Z,8.82
2018-12-21T04:28:52.548Z,8.80
2018-12-21T04:29:52.575Z,8.77
2018-12-21T04:30:52.599Z,8.79
2018-12-21T04:31:52.617Z,8.76
2018-12-21T04:32:52.641Z,8.79
2018-12-21T04:33:52.663Z,8.77
2018-12-21T04:34:52.691Z,8.86
2018-12-21T04:35:52.713Z,8.89
2018-12-21T04:36:52.736Z,8.86
2018-12-21T04:37:52.768Z,8.86
2018-12-21T04:38:52.785Z,8.86
2018-12-21T04:39:52.812Z,8.79
2018-12-21T04:40:52.832Z,8.85
2018-12-21T04:41:52.861Z,8.85
2018-12-21T04:42:52.881Z,8.92
2018-12-21T04:43:52.907Z,8.87
2018-12-21T04:44:52.931Z,8.92
2018-12-21T04:45:52.951Z,8.89
2018-12-21T04:46:52.976Z,8.87
2018-12-21T04:47:53.002Z,8.94
2018-12-21T04:48:53.026Z,8.95
2018-12-21T04:49:53.049Z,8.97
2018-12-21T04:50:53.070Z,8.98
2018-12-21T04:51:53.095Z,8.95
2018-12-21T04:52:53.123Z,8.95
2018-12-21T04:53:53.144Z,8.98
2018-12-21T04:54:53.167Z,8.94
2018-12-21T04:55:53.199Z,9.01
2018-12-21T04:56:53.218Z,8.92
2018-12-21T04:57:53.241Z,9.03
2018-12-21T04:58:53.265Z,9.01
2018-12-21T04:59:53.287Z,9.04
2018-12-21T05:00:53.315Z,9.04
2018-12-21T05:01:53.334Z,9.04
2018-12-21T05:02:53.367Z,9.05
2018-12-21T05:03:53.382Z,8.98
2018-12-21T05:04:53.407Z,9.04
2018-12-21T05:05:53.432Z,9.08
2018-12-21T05:06:53.458Z,9.21
2018-12-21T05:07:53.480Z,9.19
2018-12-21T05:08:53.505Z,9.23
2018-12-21T05:09:53.532Z,9.20
2018-12-21T05:10:53.554Z,9.23
2018-12-21T05:11:53.575Z,9.21
2018-12-21T05:12:53.601Z,9.21
2018-12-21T05:13:53.649Z,9.23
2018-12-21T05:14:53.648Z,9.29
2018-12-21T05:15:53.673Z,9.32
2018-12-21T05:16:53.698Z,9.21
2018-12-21T05:17:53.721Z,9.27
2018-12-21T05:18:53.741Z,9.26
2018-12-21T05:19:53.769Z,9.23
2018-12-21T05:20:53.795Z,9.27
2018-12-21T05:21:53.815Z,9.34
2018-12-21T05:22:53.840Z,9.38
2018-12-21T05:23:53.881Z,9.37
2018-12-21T05:24:53.892Z,9.35
2018-12-21T05:25:53.911Z,9.29
2018-12-21T05:26:53.934Z,9.30
2018-12-21T05:27:53.962Z,9.35
2018-12-21T05:28:53.984Z,9.37
2018-12-21T05:29:54.011Z,9.35
2018-12-21T05:30:54.031Z,9.34
2018-12-21T05:31:54.060Z,9.37
2018-12-21T05:32:54.080Z,9.32
2018-12-21T05:33:54.106Z,9.34
2018-12-21T05:34:54.129Z,9.35
2018-12-21T05:35:54.152Z,9.38
2018-12-21T05:36:54.178Z,9.37
2018-12-21T05:37:54.200Z,9.35
2018-12-21T05:38:54.224Z,9.38
2018-12-21T05:39:54.250Z,9.29
2018-12-21T05:40:54.273Z,9.34
2018-12-21T05:41:54.297Z,9.26
2018-12-21T05:42:54.323Z,9.34
2018-12-21T05:43:54.347Z,9.30
2018-12-21T05:44:54.369Z,9.23
2018-12-21T05:45:54.403Z,9.23
2018-12-21T05:46:54.421Z,9.29
2018-12-21T05:47:56.165Z,9.19
2018-12-21T05:48:54.465Z,9.19
2018-12-21T05:49:54.489Z,9.16
2018-12-21T05:50:54.515Z,9.08
2018-12-21T05:51:54.540Z,9.09
2018-12-21T05:53:00.744Z,9.11
2018-12-21T05:53:54.587Z,9.12
2018-12-21T05:54:54.611Z,9.11
2018-12-21T05:55:54.637Z,9.17
2018-12-21T05:56:54.661Z,9.21
2018-12-21T05:57:54.682Z,9.19
2018-12-21T05:58:54.704Z,9.09
2018-12-21T05:59:54.732Z,9.14
2018-12-21T06:00:54.757Z,9.12
2018-12-21T06:01:54.779Z,9.23
2018-12-21T06:02:54.806Z,9.21
2018-12-21T06:03:54.826Z,9.35
2018-12-21T06:04:54.850Z,9.39
2018-12-21T06:05:54.876Z,9.37
2018-12-21T06:06:54.900Z,9.39
2018-12-21T06:07:54.922Z,9.37
2018-12-21T06:08:54.950Z,9.35
2018-12-21T06:09:54.972Z,9.34
2018-12-21T06:10:54.996Z,9.34
2018-12-21T06:11:55.021Z,9.37
2018-12-21T06:12:55.043Z,9.37
2018-12-21T06:13:55.066Z,9.44
2018-12-21T06:14:55.090Z,9.39
2018-12-21T06:15:55.115Z,9.44
2018-12-21T06:16:55.143Z,9.41
2018-12-21T06:17:55.162Z,9.45
2018-12-21T06:18:55.188Z,9.50
2018-12-21T06:19:55.211Z,9.50
2018-12-21T06:20:55.237Z,9.48
2018-12-21T06:21:55.259Z,9.55
2018-12-21T06:22:55.283Z,9.52
2018-12-21T06:23:55.307Z,9.50
2018-12-21T06:24:55.334Z,9.56
2018-12-21T06:25:55.355Z,9.60
2018-12-21T06:26:55.382Z,9.50
2018-12-21T06:27:55.405Z,9.60
2018-12-21T06:28:55.431Z,9.63
2018-12-21T06:29:55.451Z,9.66
2018-12-21T06:30:55.476Z,9.64
2018-12-21T06:31:55.500Z,9.57
2018-12-21T06:32:55.524Z,9.60
2018-12-21T06:33:55.556Z,9.59
2018-12-21T06:34:55.575Z,9.62
2018-12-21T06:35:55.598Z,9.57
2018-12-21T06:36:55.623Z,9.60
2018-12-21T06:37:55.647Z,9.57
2018-12-21T06:38:55.669Z,9.57
2018-12-21T06:39:55.697Z,9.47
2018-12-21T06:40:55.720Z,9.55
2018-12-21T06:41:55.744Z,9.53
2018-12-21T06:42:55.766Z,9.52
2018-12-21T06:43:55.790Z,9.52
2018-12-21T06:44:55.815Z,9.52
2018-12-21T06:45:55.842Z,9.48
2018-12-21T06:46:55.863Z,9.47
2018-12-21T06:47:55.887Z,9.50
2018-12-21T06:48:55.914Z,9.50
2018-12-21T06:49:55.936Z,9.47
2018-12-21T06:50:55.962Z,9.52
2018-12-21T06:51:55.986Z,9.41
2018-12-21T06:52:56.010Z,9.45
2018-12-21T06:53:56.031Z,9.41
2018-12-21T06:54:56.055Z,9.39
2018-12-21T06:55:56.084Z,9.39
2018-12-21T06:56:56.105Z,9.38
2018-12-21T06:57:56.131Z,9.35
2018-12-21T06:58:56.154Z,9.34
2018-12-21T06:59:56.177Z,9.32
2018-12-21T07:00:56.202Z,9.39
2018-12-21T07:01:56.228Z,9.34
2018-12-21T07:02:56.249Z,9.37
2018-12-21T07:03:56.277Z,9.35
2018-12-21T07:04:56.303Z,9.27
2018-12-21T07:05:56.323Z,9.26
2018-12-21T07:06:56.348Z,9.38
2018-12-21T07:07:56.373Z,9.26
2018-12-21T07:08:56.397Z,9.26
2018-12-21T07:09:56.418Z,9.27
2018-12-21T07:10:56.442Z,9.26
2018-12-21T07:11:56.467Z,9.23
2018-12-21T07:12:56.494Z,9.23
2018-12-21T07:13:56.517Z,9.23
2018-12-21T07:14:56.541Z,9.17
2018-12-21T07:15:56.565Z,9.12
2018-12-21T07:16:56.590Z,9.19
2018-12-21T07:17:56.612Z,9.16
2018-12-21T07:18:56.638Z,9.16
2018-12-21T07:19:56.659Z,9.12
2018-12-21T07:20:56.686Z,9.12
2018-12-21T07:21:56.712Z,9.12
2018-12-21T07:22:56.732Z,9.08
2018-12-21T07:23:56.755Z,9.03
2018-12-21T07:24:56.780Z,9.09
2018-12-21T07:25:56.803Z,9.08
2018-12-21T07:26:56.827Z,9.04
2018-12-21T07:27:56.857Z,9.05
2018-12-21T07:28:56.878Z,9.05
2018-12-21T07:29:56.901Z,9.04
2018-12-21T07:30:56.925Z,9.03
2018-12-21T07:31:56.947Z,8.94
2018-12-21T07:32:56.972Z,8.97
2018-12-21T07:33:56.997Z,9.04
2018-12-21T07:34:57.022Z,9.00
2018-12-21T07:35:57.044Z,9.00
2018-12-21T07:36:57.071Z,9.01
2018-12-21T07:37:57.091Z,8.95
2018-12-21T07:38:57.115Z,9.03
2018-12-21T07:39:57.139Z,8.97
2018-12-21T07:40:57.166Z,9.01
2018-12-21T07:41:57.189Z,8.95
2018-12-21T07:42:57.213Z,8.89
2018-12-21T07:43:57.237Z,9.05
2018-12-21T07:44:57.259Z,9.00
2018-12-21T07:45:57.285Z,8.97
2018-12-21T07:46:57.309Z,9.01
2018-12-21T07:47:57.333Z,9.00
2018-12-21T07:48:57.378Z,8.95
2018-12-21T07:49:57.378Z,9.01
2018-12-21T07:50:57.406Z,9.04
2018-12-21T07:51:57.426Z,9.03
2018-12-21T07:52:57.452Z,9.03
2018-12-21T07:53:57.478Z,9.11
2018-12-21T07:54:57.500Z,9.03
2018-12-21T07:55:57.521Z,9.03
2018-12-21T07:56:57.547Z,9.03
2018-12-21T07:57:58.620Z,9.00
2018-12-21T07:58:57.595Z,9.08
2018-12-21T07:59:57.619Z,9.04
2018-12-21T08:00:57.643Z,9.03
2018-12-21T08:01:57.666Z,9.08
2018-12-21T08:02:57.768Z,9.04
2018-12-21T08:03:57.715Z,9.04
2018-12-21T08:04:57.739Z,9.05
2018-12-21T08:05:57.762Z,9.03
2018-12-21T08:06:57.787Z,9.09
2018-12-21T08:07:57.807Z,9.05
2018-12-21T08:08:57.834Z,9.04
2018-12-21T08:09:57.855Z,9.03
2018-12-21T08:10:57.879Z,9.04
2018-12-21T08:11:57.903Z,9.09
2018-12-21T08:12:57.930Z,9.09
2018-12-21T08:13:57.953Z,9.03
2018-12-21T08:14:57.974Z,9.04
2018-12-21T08:15:58.004Z,9.03
2018-12-21T08:16:58.024Z,9.11
2018-12-21T08:17:58.049Z,9.08
2018-12-21T08:18:58.072Z,9.09
2018-12-21T08:19:58.097Z,9.14
2018-12-21T08:20:58.168Z,9.16
2018-12-21T08:21:58.144Z,9.12
2018-12-21T08:22:58.167Z,9.19
2018-12-21T08:23:58.193Z,9.16
2018-12-21T08:24:58.217Z,9.17
2018-12-21T08:25:58.240Z,9.14
2018-12-21T08:26:58.267Z,9.14
2018-12-21T08:27:58.287Z,9.27
2018-12-21T08:28:58.313Z,9.21
2018-12-21T08:29:58.364Z,9.14
2018-12-21T08:30:58.369Z,9.24
2018-12-21T08:31:58.385Z,9.23
2018-12-21T08:32:58.408Z,9.21
2018-12-21T08:33:58.455Z,9.29
2018-12-21T08:34:58.459Z,9.30
2018-12-21T08:35:58.480Z,9.27
2018-12-21T08:36:58.506Z,9.37
2018-12-21T08:37:58.529Z,9.38
2018-12-21T08:38:58.551Z,9.34
2018-12-21T08:39:58.575Z,9.35
2018-12-21T08:40:58.601Z,9.29
2018-12-21T08:41:58.622Z,9.32
2018-12-21T08:42:58.647Z,9.29
2018-12-21T08:43:58.672Z,9.39
2018-12-21T08:44:58.697Z,9.42
2018-12-21T08:45:58.722Z,9.41
2018-12-21T08:46:58.743Z,9.50
2018-12-21T08:47:58.768Z,9.48
2018-12-21T08:48:58.793Z,9.48
2018-12-21T08:49:58.818Z,9.53
2018-12-21T08:50:58.840Z,9.50
2018-12-21T08:51:58.866Z,9.50
2018-12-21T08:52:58.889Z,9.55
2018-12-21T08:53:58.912Z,9.52
2018-12-21T08:54:58.939Z,9.55
2018-12-21T08:55:58.963Z,9.67
2018-12-21T08:56:58.985Z,9.70
2018-12-21T08:57:59.009Z,9.63
2018-12-21T08:58:59.036Z,9.70
2018-12-21T08:59:59.058Z,9.70
2018-12-21T09:00:59.083Z,9.70
2018-12-21T09:01:59.109Z,9.75
2018-12-21T09:02:59.133Z,9.74
2018-12-21T09:03:59.155Z,9.75
2018-12-21T09:04:59.178Z,9.75
2018-12-21T09:05:59.205Z,9.81
2018-12-21T09:06:59.229Z,9.74
2018-12-21T09:07:59.254Z,9.75
2018-12-21T09:08:59.279Z,9.85
2018-12-21T09:09:59.301Z,9.89
2018-12-21T09:10:59.327Z,9.84
2018-12-21T09:11:59.353Z,9.84
2018-12-21T09:12:59.376Z,9.89
2018-12-21T09:13:59.397Z,9.88
2018-12-21T09:14:59.424Z,9.84
2018-12-21T09:15:59.448Z,9.84
2018-12-21T09:16:59.472Z,9.85
2018-12-21T09:17:59.494Z,9.85
2018-12-21T09:18:59.519Z,9.82
2018-12-21T09:19:59.546Z,9.88
2018-12-21T09:20:59.568Z,9.88
2018-12-21T09:21:59.593Z,9.89
2018-12-21T09:22:59.618Z,9.99
2018-12-21T09:24:01.237Z,9.93
2018-12-21T09:24:59.665Z,9.92
2018-12-21T09:25:59.692Z,9.92
2018-12-21T09:26:59.714Z,9.90
2018-12-21T09:27:59.740Z,9.88
2018-12-21T09:28:59.763Z,9.92
2018-12-21T09:29:59.786Z,9.92
2018-12-21T09:30:59.817Z,9.92
2018-12-21T09:32:05.076Z,9.95
2018-12-21T09:32:59.864Z,9.92
2018-12-21T09:33:59.888Z,9.96
2018-12-21T09:34:59.911Z,9.98
2018-12-21T09:35:59.936Z,9.99
2018-12-21T09:36:59.960Z,9.98
2018-12-21T09:37:59.981Z,9.93
2018-12-21T09:39:00.009Z,9.95
2018-12-21T09:40:00.033Z,9.90
2018-12-21T09:41:00.055Z,9.96
2018-12-21T09:42:00.079Z,9.96
2018-12-21T09:43:00.105Z,9.93
2018-12-21T09:44:00.131Z,10.00
2018-12-21T09:45:00.155Z,9.95
2018-12-21T09:46:00.177Z,10.02
2018-12-21T09:47:00.201Z,10.02
2018-12-21T09:48:00.226Z,10.05
2018-12-21T09:49:00.253Z,10.10
2018-12-21T09:50:00.275Z,9.96
2018-12-21T09:51:00.299Z,10.08
2018-12-21T09:52:00.325Z,10.02
2018-12-21T09:53:00.351Z,10.08
2018-12-21T09:54:00.373Z,9.98
2018-12-21T09:55:00.397Z,10.00
2018-12-21T09:56:00.422Z,9.95
2018-12-21T09:57:00.449Z,10.00
2018-12-21T09:58:00.472Z,9.98
2018-12-21T09:59:00.493Z,10.00
2018-12-21T10:00:00.520Z,9.96
2018-12-21T10:01:00.544Z,9.96
2018-12-21T10:02:00.570Z,9.93
2018-12-21T10:03:00.595Z,9.99
2018-12-21T10:04:00.617Z,9.98
2018-12-21T10:05:00.642Z,9.99
2018-12-21T10:06:00.667Z,10.02
2018-12-21T10:07:00.692Z,10.07
2018-12-21T10:08:00.715Z,10.10
2018-12-21T10:09:00.739Z,9.96
2018-12-21T10:10:00.767Z,10.10
2018-12-21T10:11:00.791Z,10.07
2018-12-21T10:12:00.819Z,10.00
2018-12-21T10:13:00.843Z,10.10
2018-12-21T10:14:00.864Z,10.07
2018-12-21T10:15:00.887Z,10.13
2018-12-21T10:16:00.913Z,10.03
2018-12-21T10:17:00.937Z,10.03
2018-12-21T10:18:00.961Z,10.05
2018-12-21T10:19:00.984Z,10.05
2018-12-21T10:20:01.011Z,10.08
2018-12-21T10:21:01.035Z,10.03
2018-12-21T10:22:01.062Z,10.10
2018-12-21T10:23:01.087Z,9.99
2018-12-21T10:24:01.108Z,10.07
2018-12-21T10:25:01.133Z,10.03
2018-12-21T10:26:01.161Z,9.99
2018-12-21T10:27:01.181Z,10.15
2018-12-21T10:28:01.203Z,10.13
2018-12-21T10:29:01.230Z,10.13
2018-12-21T10:30:01.254Z,10.14
2018-12-21T10:31:01.279Z,10.05
2018-12-21T10:32:01.538Z,10.07
2018-12-21T10:33:01.331Z,10.05
2018-12-21T10:34:01.352Z,10.08
2018-12-21T10:35:01.389Z,10.21
2018-12-21T10:36:01.402Z,10.20
2018-12-21T10:37:01.424Z,10.18
2018-12-21T10:38:01.450Z,10.13
2018-12-21T10:39:01.474Z,10.15
2018-12-21T10:40:01.498Z,10.17
2018-12-21T10:41:01.521Z,10.21
2018-12-21T10:42:01.549Z,10.28
2018-12-21T10:43:01.573Z,10.17
2018-12-21T10:44:01.600Z,10.17
2018-12-21T10:45:01.623Z,10.31
2018-12-21T10:46:01.651Z,10.23
2018-12-21T10:47:01.670Z,10.28
2018-12-21T10:48:01.696Z,10.28
2018-12-21T10:49:01.719Z,10.28
2018-12-21T10:50:01.749Z,10.28
2018-12-21T10:51:01.771Z,10.39
2018-12-21T10:52:01.801Z,10.35
2018-12-21T10:53:01.817Z,10.36
2018-12-21T10:54:01.848Z,10.38
2018-12-21T10:55:01.876Z,10.31
2018-12-21T10:56:01.970Z,10.36
2018-12-21T10:57:01.915Z,10.35
2018-12-21T10:58:01.945Z,10.42
2018-12-21T10:59:01.966Z,10.35
2018-12-21T11:00:01.991Z,10.39
2018-12-21T11:01:02.017Z,10.36
2018-12-21T11:02:02.039Z,10.52
2018-12-21T11:03:02.063Z,10.36
2018-12-21T11:04:02.092Z,10.46
2018-12-21T11:05:02.113Z,10.54
2018-12-21T11:06:02.139Z,10.49
2018-12-21T11:07:02.164Z,10.63
2018-12-21T11:08:02.190Z,10.52
2018-12-21T11:09:02.214Z,10.66
2018-12-21T11:10:02.238Z,10.63
2018-12-21T11:11:02.264Z,10.70
2018-12-21T11:12:02.290Z,10.69
2018-12-21T11:13:02.313Z,10.66
2018-12-21T11:14:02.338Z,10.69
2018-12-21T11:15:02.362Z,10.70
2018-12-21T11:16:02.387Z,10.70
2018-12-21T11:17:02.412Z,10.70
2018-12-21T11:18:02.436Z,10.72
2018-12-21T11:19:02.458Z,10.72
2018-12-21T11:20:02.486Z,10.65
2018-12-21T11:21:02.511Z,10.65
2018-12-21T11:22:02.532Z,10.67
2018-12-21T11:23:02.560Z,10.83
2018-12-21T11:24:02.585Z,10.80
2018-12-21T11:25:02.608Z,10.76
2018-12-21T11:26:02.634Z,10.80
2018-12-21T11:27:02.661Z,10.85
2018-12-21T11:28:02.683Z,10.91
2018-12-21T11:29:02.709Z,10.91
2018-12-21T11:30:02.734Z,10.91
2018-12-21T11:31:02.757Z,11.00
2018-12-21T11:32:02.786Z,10.90
2018-12-21T11:33:02.811Z,11.05
2018-12-21T11:34:02.834Z,11.03
2018-12-21T11:35:02.855Z,11.15
2018-12-21T11:36:02.883Z,11.21
2018-12-21T11:37:02.907Z,11.18
2018-12-21T11:38:02.931Z,11.13
2018-12-21T11:39:02.959Z,11.28
2018-12-21T11:40:02.984Z,11.20
2018-12-21T11:41:03.011Z,11.26
2018-12-21T11:42:03.135Z,11.20
2018-12-21T11:43:03.060Z,11.31
2018-12-21T11:44:03.082Z,11.30
2018-12-21T11:45:03.107Z,11.30
2018-12-21T11:46:03.224Z,11.41
2018-12-21T11:47:03.158Z,11.41
2018-12-21T11:48:03.186Z,11.39
2018-12-21T11:49:03.207Z,11.39
2018-12-21T11:50:03.234Z,11.38
2018-12-21T11:51:03.256Z,11.41
2018-12-21T11:52:03.284Z,11.34
2018-12-21T11:53:03.307Z,11.42
2018-12-21T11:54:03.334Z,11.43
2018-12-21T11:55:03.357Z,11.39
2018-12-21T11:56:03.385Z,11.51
2018-12-21T11:57:03.409Z,11.43
2018-12-21T11:58:03.436Z,11.43
2018-12-21T11:59:03.457Z,11.64
2018-12-21T12:00:03.488Z,11.56
2018-12-21T12:01:03.510Z,11.56
2018-12-21T12:02:03.534Z,11.56
2018-12-21T12:03:03.558Z,11.59
2018-12-21T12:04:03.583Z,11.61
2018-12-21T12:05:03.611Z,11.61
2018-12-21T12:06:03.636Z,11.61
2018-12-21T12:07:03.661Z,11.68
2018-12-21T12:08:03.686Z,11.67
2018-12-21T12:09:06.399Z,11.66
2018-12-21T12:10:03.735Z,11.66
2018-12-21T12:11:03.765Z,11.76
2018-12-21T12:12:03.787Z,11.79
2018-12-21T12:13:03.816Z,11.82
2018-12-21T12:14:03.839Z,11.76
2018-12-21T12:15:03.863Z,11.78
2018-12-21T12:16:03.888Z,11.78
2018-12-21T12:17:03.916Z,11.86
2018-12-21T12:18:03.938Z,11.85
2018-12-21T12:19:03.965Z,11.95
2018-12-21T12:20:03.990Z,11.94
2018-12-21T12:21:04.013Z,11.89
2018-12-21T12:22:04.038Z,12.05
2018-12-21T12:23:04.063Z,11.95
2018-12-21T12:24:04.090Z,12.01
2018-12-21T12:25:04.116Z,12.08
2018-12-21T12:26:04.144Z,12.15
2018-12-21T12:27:04.167Z,12.10
2018-12-21T12:28:04.196Z,12.18
2018-12-21T12:29:04.216Z,12.13
2018-12-21T12:30:04.245Z,12.19
2018-12-21T12:31:04.267Z,12.20
2018-12-21T12:32:04.295Z,12.19
2018-12-21T12:33:04.348Z,12.26
2018-12-21T12:34:04.347Z,12.37
2018-12-21T12:35:04.372Z,12.45
2018-12-21T12:36:04.396Z,12.38
2018-12-21T12:37:04.422Z,12.43
2018-12-21T12:38:04.447Z,12.44
2018-12-21T12:39:04.474Z,12.51
2018-12-21T12:40:04.502Z,12.52
2018-12-21T12:41:06.710Z,12.59
2018-12-21T12:42:04.549Z,12.55
2018-12-21T12:43:04.575Z,12.61
2018-12-21T12:44:04.604Z,12.56
2018-12-21T12:45:04.634Z,12.61
2018-12-21T12:46:04.652Z,12.56
2018-12-21T12:47:04.681Z,12.62
2018-12-21T12:48:04.706Z,12.66
2018-12-21T12:49:04.740Z,12.73
2018-12-21T12:50:04.757Z,12.70
2018-12-21T12:51:04.786Z,12.80
2018-12-21T12:52:04.806Z,12.70
2018-12-21T12:53:04.833Z,12.76
2018-12-21T12:54:04.859Z,12.76
2018-12-21T12:55:04.888Z,12.77
2018-12-21T12:56:05.364Z,12.92
2018-12-21T12:57:04.936Z,12.88
2018-12-21T12:58:04.961Z,12.95
2018-12-21T12:59:04.991Z,12.88
2018-12-21T13:00:05.013Z,12.84
2018-12-21T13:01:05.042Z,12.83
2018-12-21T13:02:05.069Z,12.94
2018-12-21T13:03:05.096Z,12.92
2018-12-21T13:04:05.118Z,12.91
2018-12-21T13:05:05.143Z,12.94
2018-12-21T13:06:05.172Z,12.98
2018-12-21T13:07:05.197Z,13.02
2018-12-21T13:08:05.224Z,13.03
2018-12-21T13:09:05.250Z,13.10
2018-12-21T13:10:05.272Z,13.13
2018-12-21T13:11:05.301Z,13.17
2018-12-21T13:12:05.325Z,13.11